sensor_id;sensor_type;location;lat;lon;timestamp;temperature;humidity
37222;DHT22;23119;51.842;-2.230;2023-01-16T00:01:51;4.20;99.90
37222;DHT22;23119;51.842;-2.230;2023-01-16T00:04:17;4.30;99.90
37222;DHT22;23119;51.842;-2.230;2023-01-16T00:06:47;4.30;99.90
37222;DHT22;23119;51.842;-2.230;2023-01-16T00:09:13;4.30;99.90
37222;DHT22;23119;51.842;-2.230;2023-01-16T00:11:44;4.30;99.90
37222;DHT22;23119;51.842;-2.230;2023-01-16T00:14:13;4.30;99.90
37222;DHT22;23119;51.842;-2.230;2023-01-16T00:16:41;4.30;99.90
37222;DHT22;23119;51.842;-2.230;2023-01-16T00:19:06;4.30;99.90
37222;DHT22;23119;51.842;-2.230;2023-01-16T00:21:32;4.20;99.90
37222;DHT22;23119;51.842;-2.230;2023-01-16T00:24:00;4.20;99.90
37222;DHT22;23119;51.842;-2.230;2023-01-16T00:26:29;4.20;99.90
37222;DHT22;23119;51.842;-2.230;2023-01-16T00:28:57;4.20;99.90
37222;DHT22;23119;51.842;-2.230;2023-01-16T00:31:23;4.30;99.90
37222;DHT22;23119;51.842;-2.230;2023-01-16T00:33:55;4.30;99.90
37222;DHT22;23119;51.842;-2.230;2023-01-16T00:36:21;4.30;99.90
37222;DHT22;23119;51.842;-2.230;2023-01-16T00:38:49;4.30;99.90
37222;DHT22;23119;51.842;-2.230;2023-01-16T00:41:20;4.30;99.90
37222;DHT22;23119;51.842;-2.230;2023-01-16T00:43:46;4.30;99.90
37222;DHT22;23119;51.842;-2.230;2023-01-16T00:46:19;4.30;99.90
37222;DHT22;23119;51.842;-2.230;2023-01-16T00:48:47;4.30;99.90
37222;DHT22;23119;51.842;-2.230;2023-01-16T00:51:15;4.30;99.90
37222;DHT22;23119;51.842;-2.230;2023-01-16T00:53:41;4.30;99.90
37222;DHT22;23119;51.842;-2.230;2023-01-16T00:56:07;4.30;99.90
37222;DHT22;23119;51.842;-2.230;2023-01-16T00:58:35;4.30;99.90
37222;DHT22;23119;51.842;-2.230;2023-01-16T01:01:04;4.30;99.90
37222;DHT22;23119;51.842;-2.230;2023-01-16T01:03:30;4.30;99.90
37222;DHT22;23119;51.842;-2.230;2023-01-16T01:05:56;4.30;99.90
37222;DHT22;23119;51.842;-2.230;2023-01-16T01:08:21;4.30;99.90
37222;DHT22;23119;51.842;-2.230;2023-01-16T01:11:07;4.30;99.90
37222;DHT22;23119;51.842;-2.230;2023-01-16T01:13:36;4.20;99.90
37222;DHT22;23119;51.842;-2.230;2023-01-16T01:16:02;4.20;99.90
37222;DHT22;23119;51.842;-2.230;2023-01-16T01:18:28;4.20;99.90
37222;DHT22;23119;51.842;-2.230;2023-01-16T01:20:56;4.20;99.90
37222;DHT22;23119;51.842;-2.230;2023-01-16T01:23:24;4.20;99.90
37222;DHT22;23119;51.842;-2.230;2023-01-16T01:25:50;4.20;99.90
37222;DHT22;23119;51.842;-2.230;2023-01-16T01:28:18;4.20;99.90
37222;DHT22;23119;51.842;-2.230;2023-01-16T01:30:44;4.20;99.90
37222;DHT22;23119;51.842;-2.230;2023-01-16T01:33:15;4.20;99.90
37222;DHT22;23119;51.842;-2.230;2023-01-16T01:35:43;4.20;99.90
37222;DHT22;23119;51.842;-2.230;2023-01-16T01:38:11;4.20;99.90
37222;DHT22;23119;51.842;-2.230;2023-01-16T01:40:37;4.20;99.90
37222;DHT22;23119;51.842;-2.230;2023-01-16T01:43:03;4.20;99.90
37222;DHT22;23119;51.842;-2.230;2023-01-16T01:45:30;4.20;99.90
37222;DHT22;23119;51.842;-2.230;2023-01-16T01:48:21;4.30;99.90
37222;DHT22;23119;51.842;-2.230;2023-01-16T01:51:04;4.30;99.90
37222;DHT22;23119;51.842;-2.230;2023-01-16T01:53:44;4.30;99.90
37222;DHT22;23119;51.842;-2.230;2023-01-16T01:56:22;4.30;99.90
37222;DHT22;23119;51.842;-2.230;2023-01-16T01:59:00;4.30;99.90
37222;DHT22;23119;51.842;-2.230;2023-01-16T02:01:29;4.20;99.90
37222;DHT22;23119;51.842;-2.230;2023-01-16T02:04:04;4.20;99.90
37222;DHT22;23119;51.842;-2.230;2023-01-16T02:06:43;4.20;99.90
37222;DHT22;23119;51.842;-2.230;2023-01-16T02:09:10;4.20;99.90
37222;DHT22;23119;51.842;-2.230;2023-01-16T02:11:58;4.20;99.90
37222;DHT22;23119;51.842;-2.230;2023-01-16T02:14:31;4.30;99.90
37222;DHT22;23119;51.842;-2.230;2023-01-16T02:17:07;4.30;99.90
37222;DHT22;23119;51.842;-2.230;2023-01-16T02:39:28;4.20;99.90
37222;DHT22;23119;51.842;-2.230;2023-01-16T02:45:04;4.20;99.90
37222;DHT22;23119;51.842;-2.230;2023-01-16T02:47:55;4.20;99.90
37222;DHT22;23119;51.842;-2.230;2023-01-16T02:50:40;4.20;99.90
37222;DHT22;23119;51.842;-2.230;2023-01-16T02:53:45;4.20;99.90
37222;DHT22;23119;51.842;-2.230;2023-01-16T02:59:24;4.20;99.90
37222;DHT22;23119;51.842;-2.230;2023-01-16T03:01:56;4.20;99.90
37222;DHT22;23119;51.842;-2.230;2023-01-16T03:10:10;4.20;99.90
37222;DHT22;23119;51.842;-2.230;2023-01-16T03:13:10;4.20;99.90
37222;DHT22;23119;51.842;-2.230;2023-01-16T03:19:11;4.20;99.90
37222;DHT22;23119;51.842;-2.230;2023-01-16T03:24:03;4.20;99.90
37222;DHT22;23119;51.842;-2.230;2023-01-16T03:26:40;4.10;99.90
37222;DHT22;23119;51.842;-2.230;2023-01-16T03:37:17;4.10;99.90
37222;DHT22;23119;51.842;-2.230;2023-01-16T03:39:52;4.10;99.90
37222;DHT22;23119;51.842;-2.230;2023-01-16T03:42:30;4.10;99.90
37222;DHT22;23119;51.842;-2.230;2023-01-16T03:45:03;4.10;99.90
37222;DHT22;23119;51.842;-2.230;2023-01-16T03:47:44;4.10;99.90
37222;DHT22;23119;51.842;-2.230;2023-01-16T03:50:21;4.10;99.90
37222;DHT22;23119;51.842;-2.230;2023-01-16T03:52:53;4.10;99.90
37222;DHT22;23119;51.842;-2.230;2023-01-16T03:55:28;4.10;99.90
37222;DHT22;23119;51.842;-2.230;2023-01-16T03:58:06;4.10;99.90
37222;DHT22;23119;51.842;-2.230;2023-01-16T04:06:41;4.10;99.90
37222;DHT22;23119;51.842;-2.230;2023-01-16T04:09:16;4.10;99.90
37222;DHT22;23119;51.842;-2.230;2023-01-16T04:11:48;4.10;99.90
37222;DHT22;23119;51.842;-2.230;2023-01-16T04:14:17;4.00;99.90
37222;DHT22;23119;51.842;-2.230;2023-01-16T04:16:47;4.10;99.90
37222;DHT22;23119;51.842;-2.230;2023-01-16T04:19:15;4.00;99.90
37222;DHT22;23119;51.842;-2.230;2023-01-16T04:21:45;4.10;99.90
37222;DHT22;23119;51.842;-2.230;2023-01-16T04:24:15;4.00;99.90
37222;DHT22;23119;51.842;-2.230;2023-01-16T04:26:41;4.10;99.90
37222;DHT22;23119;51.842;-2.230;2023-01-16T04:29:10;4.10;99.90
37222;DHT22;23119;51.842;-2.230;2023-01-16T04:31:36;4.10;99.90
37222;DHT22;23119;51.842;-2.230;2023-01-16T04:34:05;4.10;99.90
37222;DHT22;23119;51.842;-2.230;2023-01-16T04:36:33;4.20;99.90
37222;DHT22;23119;51.842;-2.230;2023-01-16T04:38:59;4.20;99.90
37222;DHT22;23119;51.842;-2.230;2023-01-16T04:41:25;4.20;99.90
37222;DHT22;23119;51.842;-2.230;2023-01-16T04:44:08;4.10;99.90
37222;DHT22;23119;51.842;-2.230;2023-01-16T04:46:34;4.20;99.90
37222;DHT22;23119;51.842;-2.230;2023-01-16T04:49:09;4.10;99.90
37222;DHT22;23119;51.842;-2.230;2023-01-16T04:51:36;4.20;99.90
37222;DHT22;23119;51.842;-2.230;2023-01-16T04:54:05;4.20;99.90
37222;DHT22;23119;51.842;-2.230;2023-01-16T04:56:34;4.20;99.90
37222;DHT22;23119;51.842;-2.230;2023-01-16T04:59:01;4.20;99.90
37222;DHT22;23119;51.842;-2.230;2023-01-16T05:01:30;4.20;99.90
37222;DHT22;23119;51.842;-2.230;2023-01-16T05:04:03;4.20;99.90
37222;DHT22;23119;51.842;-2.230;2023-01-16T05:06:30;4.20;99.90
37222;DHT22;23119;51.842;-2.230;2023-01-16T05:09:03;4.20;99.90
37222;DHT22;23119;51.842;-2.230;2023-01-16T05:11:33;4.20;99.90
37222;DHT22;23119;51.842;-2.230;2023-01-16T05:14:05;4.20;99.90
37222;DHT22;23119;51.842;-2.230;2023-01-16T05:16:37;4.30;99.90
37222;DHT22;23119;51.842;-2.230;2023-01-16T05:19:04;4.30;99.90
37222;DHT22;23119;51.842;-2.230;2023-01-16T05:21:32;4.30;99.90
37222;DHT22;23119;51.842;-2.230;2023-01-16T05:23:58;4.40;99.90
37222;DHT22;23119;51.842;-2.230;2023-01-16T05:26:24;4.40;99.90
37222;DHT22;23119;51.842;-2.230;2023-01-16T05:28:50;4.40;99.90
37222;DHT22;23119;51.842;-2.230;2023-01-16T05:31:19;4.40;99.90
37222;DHT22;23119;51.842;-2.230;2023-01-16T05:33:47;4.40;99.90
37222;DHT22;23119;51.842;-2.230;2023-01-16T05:36:13;4.50;99.90
37222;DHT22;23119;51.842;-2.230;2023-01-16T05:38:43;4.50;99.90
37222;DHT22;23119;51.842;-2.230;2023-01-16T05:41:11;4.50;99.90
37222;DHT22;23119;51.842;-2.230;2023-01-16T05:43:37;4.50;99.90
37222;DHT22;23119;51.842;-2.230;2023-01-16T05:46:03;4.50;99.90
37222;DHT22;23119;51.842;-2.230;2023-01-16T05:48:31;4.60;99.90
37222;DHT22;23119;51.842;-2.230;2023-01-16T05:50:59;4.60;99.90
37222;DHT22;23119;51.842;-2.230;2023-01-16T05:53:28;4.60;99.90
37222;DHT22;23119;51.842;-2.230;2023-01-16T05:55:56;4.60;99.90
37222;DHT22;23119;51.842;-2.230;2023-01-16T05:58:22;4.60;99.90
37222;DHT22;23119;51.842;-2.230;2023-01-16T06:00:48;4.60;99.90
37222;DHT22;23119;51.842;-2.230;2023-01-16T06:03:14;4.60;99.90
37222;DHT22;23119;51.842;-2.230;2023-01-16T06:05:43;4.60;99.90
37222;DHT22;23119;51.842;-2.230;2023-01-16T06:08:08;4.60;99.90
37222;DHT22;23119;51.842;-2.230;2023-01-16T06:10:36;4.60;99.90
37222;DHT22;23119;51.842;-2.230;2023-01-16T06:13:10;4.60;99.90
37222;DHT22;23119;51.842;-2.230;2023-01-16T06:15:36;4.60;99.90
37222;DHT22;23119;51.842;-2.230;2023-01-16T06:18:04;4.60;99.90
37222;DHT22;23119;51.842;-2.230;2023-01-16T06:20:37;4.70;99.90
37222;DHT22;23119;51.842;-2.230;2023-01-16T06:23:02;4.60;99.90
37222;DHT22;23119;51.842;-2.230;2023-01-16T06:25:31;4.60;99.90
37222;DHT22;23119;51.842;-2.230;2023-01-16T06:27:57;4.60;99.90
37222;DHT22;23119;51.842;-2.230;2023-01-16T06:30:28;4.60;99.90
37222;DHT22;23119;51.842;-2.230;2023-01-16T06:32:56;4.60;99.90
37222;DHT22;23119;51.842;-2.230;2023-01-16T06:35:25;4.60;99.90
37222;DHT22;23119;51.842;-2.230;2023-01-16T06:37:55;4.60;99.90
37222;DHT22;23119;51.842;-2.230;2023-01-16T06:40:23;4.60;99.90
37222;DHT22;23119;51.842;-2.230;2023-01-16T06:42:52;4.60;99.90
37222;DHT22;23119;51.842;-2.230;2023-01-16T06:45:20;4.60;99.90
37222;DHT22;23119;51.842;-2.230;2023-01-16T06:47:53;4.60;99.90
37222;DHT22;23119;51.842;-2.230;2023-01-16T06:50:20;4.50;99.90
37222;DHT22;23119;51.842;-2.230;2023-01-16T06:52:48;4.60;99.90
37222;DHT22;23119;51.842;-2.230;2023-01-16T06:55:14;4.50;99.90
37222;DHT22;23119;51.842;-2.230;2023-01-16T06:57:43;4.50;99.90
37222;DHT22;23119;51.842;-2.230;2023-01-16T07:00:09;4.50;99.90
37222;DHT22;23119;51.842;-2.230;2023-01-16T07:02:34;4.50;99.90
37222;DHT22;23119;51.842;-2.230;2023-01-16T07:05:08;4.50;99.90
37222;DHT22;23119;51.842;-2.230;2023-01-16T07:07:35;4.50;99.90
37222;DHT22;23119;51.842;-2.230;2023-01-16T07:10:01;4.50;99.90
37222;DHT22;23119;51.842;-2.230;2023-01-16T07:12:28;4.50;99.90
37222;DHT22;23119;51.842;-2.230;2023-01-16T07:14:56;4.50;99.90
37222;DHT22;23119;51.842;-2.230;2023-01-16T07:17:40;4.50;99.90
37222;DHT22;23119;51.842;-2.230;2023-01-16T07:20:51;4.50;99.90
37222;DHT22;23119;51.842;-2.230;2023-01-16T07:23:36;4.50;99.90
37222;DHT22;23119;51.842;-2.230;2023-01-16T07:26:07;4.40;99.90
37222;DHT22;23119;51.842;-2.230;2023-01-16T07:28:34;4.40;99.90
37222;DHT22;23119;51.842;-2.230;2023-01-16T07:31:05;4.40;99.90
37222;DHT22;23119;51.842;-2.230;2023-01-16T07:33:35;4.40;99.90
37222;DHT22;23119;51.842;-2.230;2023-01-16T07:36:05;4.40;99.90
37222;DHT22;23119;51.842;-2.230;2023-01-16T07:38:43;4.40;99.90
37222;DHT22;23119;51.842;-2.230;2023-01-16T07:41:09;4.30;99.90
37222;DHT22;23119;51.842;-2.230;2023-01-16T07:43:35;4.30;99.90
37222;DHT22;23119;51.842;-2.230;2023-01-16T07:46:01;4.30;99.90
37222;DHT22;23119;51.842;-2.230;2023-01-16T07:48:37;4.30;99.90
37222;DHT22;23119;51.842;-2.230;2023-01-16T07:51:03;4.20;99.90
37222;DHT22;23119;51.842;-2.230;2023-01-16T07:53:31;4.20;99.90
37222;DHT22;23119;51.842;-2.230;2023-01-16T07:56:03;4.20;99.90
37222;DHT22;23119;51.842;-2.230;2023-01-16T07:58:31;4.10;99.90
37222;DHT22;23119;51.842;-2.230;2023-01-16T08:01:00;4.10;99.90
37222;DHT22;23119;51.842;-2.230;2023-01-16T08:03:25;4.20;99.90
37222;DHT22;23119;51.842;-2.230;2023-01-16T08:05:59;4.10;99.90
37222;DHT22;23119;51.842;-2.230;2023-01-16T08:08:28;4.10;99.90
37222;DHT22;23119;51.842;-2.230;2023-01-16T08:10:55;5.80;99.90
37222;DHT22;23119;51.842;-2.230;2023-01-16T08:13:25;4.10;99.90
37222;DHT22;23119;51.842;-2.230;2023-01-16T08:15:52;4.10;99.90
37222;DHT22;23119;51.842;-2.230;2023-01-16T08:18:25;4.10;99.90
37222;DHT22;23119;51.842;-2.230;2023-01-16T08:20:51;4.20;99.90
37222;DHT22;23119;51.842;-2.230;2023-01-16T08:23:19;4.20;99.90
37222;DHT22;23119;51.842;-2.230;2023-01-16T08:25:49;4.20;99.90
37222;DHT22;23119;51.842;-2.230;2023-01-16T08:28:15;4.30;99.90
37222;DHT22;23119;51.842;-2.230;2023-01-16T08:30:48;4.30;99.90
37222;DHT22;23119;51.842;-2.230;2023-01-16T08:33:16;4.30;99.90
37222;DHT22;23119;51.842;-2.230;2023-01-16T08:35:42;4.30;99.90
37222;DHT22;23119;51.842;-2.230;2023-01-16T08:38:08;4.30;99.90
37222;DHT22;23119;51.842;-2.230;2023-01-16T08:40:33;4.30;99.90
37222;DHT22;23119;51.842;-2.230;2023-01-16T08:42:59;4.30;99.90
37222;DHT22;23119;51.842;-2.230;2023-01-16T08:45:43;4.40;99.90
37222;DHT22;23119;51.842;-2.230;2023-01-16T08:48:27;4.40;99.90
37222;DHT22;23119;51.842;-2.230;2023-01-16T08:51:20;4.40;99.90
37222;DHT22;23119;51.842;-2.230;2023-01-16T08:53:50;4.40;99.90
37222;DHT22;23119;51.842;-2.230;2023-01-16T08:56:16;4.40;99.90
37222;DHT22;23119;51.842;-2.230;2023-01-16T08:58:44;4.40;99.90
37222;DHT22;23119;51.842;-2.230;2023-01-16T09:01:10;4.40;99.90
37222;DHT22;23119;51.842;-2.230;2023-01-16T09:03:35;4.40;99.90
37222;DHT22;23119;51.842;-2.230;2023-01-16T09:06:01;4.50;99.90
37222;DHT22;23119;51.842;-2.230;2023-01-16T09:08:27;4.50;99.90
37222;DHT22;23119;51.842;-2.230;2023-01-16T09:10:53;4.60;99.90
37222;DHT22;23119;51.842;-2.230;2023-01-16T09:13:37;4.60;99.90
37222;DHT22;23119;51.842;-2.230;2023-01-16T09:16:22;4.60;99.90
37222;DHT22;23119;51.842;-2.230;2023-01-16T09:18:50;4.60;99.90
37222;DHT22;23119;51.842;-2.230;2023-01-16T09:21:19;4.60;99.90
37222;DHT22;23119;51.842;-2.230;2023-01-16T09:23:50;4.60;99.90
37222;DHT22;23119;51.842;-2.230;2023-01-16T09:26:19;4.60;99.90
37222;DHT22;23119;51.842;-2.230;2023-01-16T09:28:47;4.70;99.90
37222;DHT22;23119;51.842;-2.230;2023-01-16T09:31:13;4.70;99.90
37222;DHT22;23119;51.842;-2.230;2023-01-16T09:33:41;4.70;99.90
37222;DHT22;23119;51.842;-2.230;2023-01-16T09:36:07;4.70;99.90
37222;DHT22;23119;51.842;-2.230;2023-01-16T09:38:36;4.80;99.90
37222;DHT22;23119;51.842;-2.230;2023-01-16T09:41:02;4.80;99.90
37222;DHT22;23119;51.842;-2.230;2023-01-16T09:43:36;4.80;99.90
37222;DHT22;23119;51.842;-2.230;2023-01-16T09:48:33;4.90;99.90
37222;DHT22;23119;51.842;-2.230;2023-01-16T09:51:13;4.90;99.90
37222;DHT22;23119;51.842;-2.230;2023-01-16T09:53:54;5.00;99.90
37222;DHT22;23119;51.842;-2.230;2023-01-16T09:56:41;5.00;99.90
37222;DHT22;23119;51.842;-2.230;2023-01-16T09:59:52;5.00;99.90
37222;DHT22;23119;51.842;-2.230;2023-01-16T10:02:27;5.10;99.90
37222;DHT22;23119;51.842;-2.230;2023-01-16T10:04:56;5.20;99.90
37222;DHT22;23119;51.842;-2.230;2023-01-16T10:07:49;5.20;99.90
37222;DHT22;23119;51.842;-2.230;2023-01-16T10:18:40;5.40;99.90
37222;DHT22;23119;51.842;-2.230;2023-01-16T10:26:56;5.40;99.90
37222;DHT22;23119;51.842;-2.230;2023-01-16T10:32:16;5.40;99.90
37222;DHT22;23119;51.842;-2.230;2023-01-16T10:37:32;5.40;99.90
37222;DHT22;23119;51.842;-2.230;2023-01-16T10:40:15;5.50;99.90
37222;DHT22;23119;51.842;-2.230;2023-01-16T10:42:43;5.50;99.90
37222;DHT22;23119;51.842;-2.230;2023-01-16T10:45:32;5.50;99.90
37222;DHT22;23119;51.842;-2.230;2023-01-16T10:48:17;5.50;99.90
37222;DHT22;23119;51.842;-2.230;2023-01-16T10:51:04;5.60;99.90
37222;DHT22;23119;51.842;-2.230;2023-01-16T10:53:32;5.60;99.90
37222;DHT22;23119;51.842;-2.230;2023-01-16T10:56:00;5.60;99.90
37222;DHT22;23119;51.842;-2.230;2023-01-16T10:58:37;5.70;99.90
37222;DHT22;23119;51.842;-2.230;2023-01-16T11:01:15;5.70;99.90
37222;DHT22;23119;51.842;-2.230;2023-01-16T11:03:50;5.80;99.90
37222;DHT22;23119;51.842;-2.230;2023-01-16T11:06:28;5.80;99.90
37222;DHT22;23119;51.842;-2.230;2023-01-16T11:09:02;5.80;99.90
37222;DHT22;23119;51.842;-2.230;2023-01-16T11:11:29;5.80;99.90
37222;DHT22;23119;51.842;-2.230;2023-01-16T11:14:26;5.80;99.90
37222;DHT22;23119;51.842;-2.230;2023-01-16T11:20:04;5.70;99.90
37222;DHT22;23119;51.842;-2.230;2023-01-16T11:22:39;5.70;99.90
37222;DHT22;23119;51.842;-2.230;2023-01-16T11:25:14;5.60;99.90
37222;DHT22;23119;51.842;-2.230;2023-01-16T11:27:44;5.60;99.90
37222;DHT22;23119;51.842;-2.230;2023-01-16T11:30:22;5.50;99.90
37222;DHT22;23119;51.842;-2.230;2023-01-16T11:32:57;5.50;99.90
37222;DHT22;23119;51.842;-2.230;2023-01-16T11:35:31;5.50;99.90
37222;DHT22;23119;51.842;-2.230;2023-01-16T11:37:59;5.50;99.90
37222;DHT22;23119;51.842;-2.230;2023-01-16T11:40:34;5.50;99.90
37222;DHT22;23119;51.842;-2.230;2023-01-16T11:43:08;5.50;99.90
37222;DHT22;23119;51.842;-2.230;2023-01-16T11:46:30;5.50;99.90
37222;DHT22;23119;51.842;-2.230;2023-01-16T11:49:17;5.50;99.90
37222;DHT22;23119;51.842;-2.230;2023-01-16T11:51:49;5.60;99.90
37222;DHT22;23119;51.842;-2.230;2023-01-16T11:54:26;5.90;99.90
37222;DHT22;23119;51.842;-2.230;2023-01-16T12:00:00;6.20;99.90
37222;DHT22;23119;51.842;-2.230;2023-01-16T12:06:09;6.50;99.90
37222;DHT22;23119;51.842;-2.230;2023-01-16T12:23:04;6.20;99.90
37222;DHT22;23119;51.842;-2.230;2023-01-16T12:38:47;6.60;99.90
37222;DHT22;23119;51.842;-2.230;2023-01-16T12:41:21;6.70;99.90
37222;DHT22;23119;51.842;-2.230;2023-01-16T12:44:35;6.70;99.90
37222;DHT22;23119;51.842;-2.230;2023-01-16T12:47:34;6.60;99.90
37222;DHT22;23119;51.842;-2.230;2023-01-16T12:50:48;6.70;99.90
37222;DHT22;23119;51.842;-2.230;2023-01-16T12:53:55;6.60;99.90
37222;DHT22;23119;51.842;-2.230;2023-01-16T12:59:15;6.60;99.90
37222;DHT22;23119;51.842;-2.230;2023-01-16T13:01:47;6.60;99.90
37222;DHT22;23119;51.842;-2.230;2023-01-16T13:04:29;4.90;99.90
37222;DHT22;23119;51.842;-2.230;2023-01-16T13:06:58;6.60;99.90
37222;DHT22;23119;51.842;-2.230;2023-01-16T13:09:36;6.50;99.90
37222;DHT22;23119;51.842;-2.230;2023-01-16T13:12:10;6.40;99.90
37222;DHT22;23119;51.842;-2.230;2023-01-16T13:15:04;6.40;99.90
37222;DHT22;23119;51.842;-2.230;2023-01-16T13:20:09;6.40;99.90
37222;DHT22;23119;51.842;-2.230;2023-01-16T13:22:51;6.40;99.90
37222;DHT22;23119;51.842;-2.230;2023-01-16T13:25:39;6.40;99.90
37222;DHT22;23119;51.842;-2.230;2023-01-16T13:31:10;6.50;99.90
37222;DHT22;23119;51.842;-2.230;2023-01-16T13:33:41;6.40;99.90
37222;DHT22;23119;51.842;-2.230;2023-01-16T13:41:30;6.30;99.90
37222;DHT22;23119;51.842;-2.230;2023-01-16T13:44:24;6.10;99.90
37222;DHT22;23119;51.842;-2.230;2023-01-16T13:47:31;6.00;99.90
37222;DHT22;23119;51.842;-2.230;2023-01-16T13:50:21;5.90;99.90
37222;DHT22;23119;51.842;-2.230;2023-01-16T13:52:54;5.80;99.90
37222;DHT22;23119;51.842;-2.230;2023-01-16T13:55:37;5.80;99.90
37222;DHT22;23119;51.842;-2.230;2023-01-16T13:59:03;5.80;99.90
37222;DHT22;23119;51.842;-2.230;2023-01-16T14:04:24;5.70;99.90
37222;DHT22;23119;51.842;-2.230;2023-01-16T14:06:57;5.70;99.90
37222;DHT22;23119;51.842;-2.230;2023-01-16T14:12:34;5.60;99.90
37222;DHT22;23119;51.842;-2.230;2023-01-16T14:15:17;5.60;99.90
37222;DHT22;23119;51.842;-2.230;2023-01-16T14:18:14;5.60;99.90
37222;DHT22;23119;51.842;-2.230;2023-01-16T14:26:13;5.60;99.90
37222;DHT22;23119;51.842;-2.230;2023-01-16T14:28:47;5.50;99.90
37222;DHT22;23119;51.842;-2.230;2023-01-16T14:31:25;5.50;99.90
37222;DHT22;23119;51.842;-2.230;2023-01-16T14:33:55;5.50;99.90
37222;DHT22;23119;51.842;-2.230;2023-01-16T14:36:26;5.40;99.90
37222;DHT22;23119;51.842;-2.230;2023-01-16T14:38:52;5.40;99.90
37222;DHT22;23119;51.842;-2.230;2023-01-16T14:41:27;5.30;99.90
37222;DHT22;23119;51.842;-2.230;2023-01-16T14:44:21;5.20;99.90
37222;DHT22;23119;51.842;-2.230;2023-01-16T14:50:13;5.20;99.90
37222;DHT22;23119;51.842;-2.230;2023-01-16T14:56:27;5.10;99.90
37222;DHT22;23119;51.842;-2.230;2023-01-16T14:59:10;5.00;99.90
37222;DHT22;23119;51.842;-2.230;2023-01-16T15:02:02;5.00;99.90
37222;DHT22;23119;51.842;-2.230;2023-01-16T15:04:56;4.90;99.90
37222;DHT22;23119;51.842;-2.230;2023-01-16T15:07:48;4.80;99.90
37222;DHT22;23119;51.842;-2.230;2023-01-16T15:12:42;4.70;99.90
37222;DHT22;23119;51.842;-2.230;2023-01-16T15:15:24;4.70;99.90
37222;DHT22;23119;51.842;-2.230;2023-01-16T15:17:52;4.70;99.90
37222;DHT22;23119;51.842;-2.230;2023-01-16T15:20:37;4.60;99.90
37222;DHT22;23119;51.842;-2.230;2023-01-16T15:23:29;4.60;99.90
37222;DHT22;23119;51.842;-2.230;2023-01-16T15:29:03;4.50;99.90
37222;DHT22;23119;51.842;-2.230;2023-01-16T15:31:40;4.50;99.90
37222;DHT22;23119;51.842;-2.230;2023-01-16T15:34:18;4.50;99.90
37222;DHT22;23119;51.842;-2.230;2023-01-16T15:36:53;4.40;99.90
37222;DHT22;23119;51.842;-2.230;2023-01-16T15:44:57;4.30;99.90
37222;DHT22;23119;51.842;-2.230;2023-01-16T15:53:17;4.20;99.90
37222;DHT22;23119;51.842;-2.230;2023-01-16T15:55:52;4.20;99.90
37222;DHT22;23119;51.842;-2.230;2023-01-16T15:58:23;4.20;99.90
37222;DHT22;23119;51.842;-2.230;2023-01-16T16:01:02;4.10;99.90
37222;DHT22;23119;51.842;-2.230;2023-01-16T16:03:44;4.10;99.90
37222;DHT22;23119;51.842;-2.230;2023-01-16T16:06:13;4.00;99.90
37222;DHT22;23119;51.842;-2.230;2023-01-16T16:08:51;4.00;99.90
37222;DHT22;23119;51.842;-2.230;2023-01-16T16:11:23;3.90;99.90
37222;DHT22;23119;51.842;-2.230;2023-01-16T16:14:33;3.80;99.90
37222;DHT22;23119;51.842;-2.230;2023-01-16T16:23:09;3.60;99.90
37222;DHT22;23119;51.842;-2.230;2023-01-16T16:26:00;3.50;99.90
37222;DHT22;23119;51.842;-2.230;2023-01-16T16:31:15;3.30;99.90
37222;DHT22;23119;51.842;-2.230;2023-01-16T16:33:51;3.30;99.90
37222;DHT22;23119;51.842;-2.230;2023-01-16T16:36:17;3.20;99.90
37222;DHT22;23119;51.842;-2.230;2023-01-16T16:38:54;3.20;99.90
37222;DHT22;23119;51.842;-2.230;2023-01-16T16:43:56;3.10;99.90
37222;DHT22;23119;51.842;-2.230;2023-01-16T16:51:49;2.90;99.90
37222;DHT22;23119;51.842;-2.230;2023-01-16T16:54:17;2.90;99.90
37222;DHT22;23119;51.842;-2.230;2023-01-16T16:56:49;2.90;99.90
37222;DHT22;23119;51.842;-2.230;2023-01-16T16:59:24;2.80;99.90
37222;DHT22;23119;51.842;-2.230;2023-01-16T17:04:19;2.70;99.90
37222;DHT22;23119;51.842;-2.230;2023-01-16T17:06:46;2.60;99.90
37222;DHT22;23119;51.842;-2.230;2023-01-16T17:09:16;2.60;99.90
37222;DHT22;23119;51.842;-2.230;2023-01-16T17:11:50;2.50;99.90
37222;DHT22;23119;51.842;-2.230;2023-01-16T17:14:19;2.40;99.90
37222;DHT22;23119;51.842;-2.230;2023-01-16T17:16:45;2.40;99.90
37222;DHT22;23119;51.842;-2.230;2023-01-16T17:19:31;2.40;99.90
37222;DHT22;23119;51.842;-2.230;2023-01-16T17:21:59;2.30;99.90
37222;DHT22;23119;51.842;-2.230;2023-01-16T17:24:28;2.20;99.90
37222;DHT22;23119;51.842;-2.230;2023-01-16T17:26:53;2.20;99.90
37222;DHT22;23119;51.842;-2.230;2023-01-16T17:29:21;2.10;99.90
37222;DHT22;23119;51.842;-2.230;2023-01-16T17:31:48;2.10;99.90
37222;DHT22;23119;51.842;-2.230;2023-01-16T17:34:19;2.00;99.90
37222;DHT22;23119;51.842;-2.230;2023-01-16T17:36:50;2.00;99.90
37222;DHT22;23119;51.842;-2.230;2023-01-16T17:39:18;1.90;99.90
37222;DHT22;23119;51.842;-2.230;2023-01-16T17:41:44;1.90;99.90
37222;DHT22;23119;51.842;-2.230;2023-01-16T17:44:23;1.80;99.90
37222;DHT22;23119;51.842;-2.230;2023-01-16T17:47:22;1.80;99.90
37222;DHT22;23119;51.842;-2.230;2023-01-16T17:49:55;1.80;99.90
37222;DHT22;23119;51.842;-2.230;2023-01-16T17:52:39;1.80;99.90
37222;DHT22;23119;51.842;-2.230;2023-01-16T17:55:05;1.70;99.90
37222;DHT22;23119;51.842;-2.230;2023-01-16T17:57:49;1.70;99.90
37222;DHT22;23119;51.842;-2.230;2023-01-16T18:00:22;1.70;99.90
37222;DHT22;23119;51.842;-2.230;2023-01-16T18:02:48;1.60;99.90
37222;DHT22;23119;51.842;-2.230;2023-01-16T18:05:14;1.60;99.90
37222;DHT22;23119;51.842;-2.230;2023-01-16T18:07:45;1.60;99.90
37222;DHT22;23119;51.842;-2.230;2023-01-16T18:10:13;1.60;99.90
37222;DHT22;23119;51.842;-2.230;2023-01-16T18:12:41;1.50;99.90
37222;DHT22;23119;51.842;-2.230;2023-01-16T18:15:32;1.50;99.90
37222;DHT22;23119;51.842;-2.230;2023-01-16T18:18:25;1.50;99.90
37222;DHT22;23119;51.842;-2.230;2023-01-16T18:20:54;1.50;99.90
37222;DHT22;23119;51.842;-2.230;2023-01-16T18:23:54;1.50;99.90
37222;DHT22;23119;51.842;-2.230;2023-01-16T18:26:20;1.40;99.90
37222;DHT22;23119;51.842;-2.230;2023-01-16T18:28:48;1.50;99.90
37222;DHT22;23119;51.842;-2.230;2023-01-16T18:31:19;1.40;99.90
37222;DHT22;23119;51.842;-2.230;2023-01-16T18:33:45;1.40;99.90
37222;DHT22;23119;51.842;-2.230;2023-01-16T18:36:20;1.40;99.90
37222;DHT22;23119;51.842;-2.230;2023-01-16T18:38:49;1.40;99.90
37222;DHT22;23119;51.842;-2.230;2023-01-16T18:41:33;1.30;99.90
37222;DHT22;23119;51.842;-2.230;2023-01-16T18:44:23;1.30;99.90
37222;DHT22;23119;51.842;-2.230;2023-01-16T18:47:14;1.20;99.90
37222;DHT22;23119;51.842;-2.230;2023-01-16T18:49:58;1.20;99.90
37222;DHT22;23119;51.842;-2.230;2023-01-16T18:52:43;1.20;99.90
37222;DHT22;23119;51.842;-2.230;2023-01-16T18:55:28;1.10;99.90
37222;DHT22;23119;51.842;-2.230;2023-01-16T18:58:25;1.10;99.90
37222;DHT22;23119;51.842;-2.230;2023-01-16T19:01:13;1.00;99.90
37222;DHT22;23119;51.842;-2.230;2023-01-16T19:04:02;0.80;99.90
37222;DHT22;23119;51.842;-2.230;2023-01-16T19:06:30;0.80;99.90
37222;DHT22;23119;51.842;-2.230;2023-01-16T19:08:57;0.80;99.90
37222;DHT22;23119;51.842;-2.230;2023-01-16T19:11:23;0.80;99.90